メインページ
METAR-TAF:

METAR-TAF

空港 :

プルコヴォ空港

サンクトペテルブルク, ロシア

緯度: 59-58N, 経度: 030-18E, 海抜: 4m

現時点の気象観測

当レポートは32分前の12:30(UTC)に作成
東/南東の風 6kt
気温 1°C
湿度 93%
気圧 1004 hPa
視程10km以上
高度700ftの千切れ雲あり

METAR: ULLI 281230Z 12003MPS 9999 BKN007 01/M00 Q1004 R10R/290050 NOSIG

時間: 16:02 (13:02 UTC)

予報

当レポートは2時間3分前の10:59(UTC)に作成
予報は28日の 12時(UTC)から 29日の 12時(UTC)まで有効
南東の風 6kt
視程: 6000m
高度700ftの千切れ雲あり
高度1600ftの曇り
28日の 12時(UTC)から 28日の 17時(UTC)まで一時的に
視程: 4000m
高度800ftの雲は散在している
高度1600ftの千切れ雲あり
小雪
28日の 17時(UTC)から 29日の 04時(UTC)まで一時的に
視程: 3100m
高度500ftの千切れ雲あり
高度1600ftの曇り
小雪, 靄
29日の 0400時(UTC)から
の風 6kt、最大16ktの突風を伴う
視程: 6000m
高度800ftの千切れ雲あり
高度1600ftの曇り
小雪
29日の 04時(UTC)から 29日の 12時(UTC)まで一時的に
視程: 3100m
高度400ftの千切れ雲あり
高度1600ftの千切れ雲あり, 積乱雲.
弱いにわか雪

TAF: ULLI 281059Z 2812/2912 13003MPS 6000 BKN007 OVC016 TEMPO 2812/2817 4000 -SN SCT008 BKN016 TEMPO 2817/2904 3100 -SN BR BKN005 OVC016 FM290400 08003G08MPS 6000 -SN BKN008 OVC016 TEMPO 2904/2912 3100 -SHSN BKN004 BKN016CB

4,000以上の空港の気象観測と天気予報(METAR報とTAF報)

利用可能な観測所は地図上に黄色い丸と赤い丸で示す。

丸の上にカーソルを重ねると観測所名を参照できる。

次にクリックすると気象観測と天気予報を参照できる。

マップの切り替え:黒色「×」印の緑ボタンをクリックして拡大、「-」印の緑ボタンをクリックして縮小、緑色の三角印をクリックして隣りの地図に切り替え


METAR-TAF: